Time;durP1;ratioP1;P1;durP2;ratioP2;P2;SDS_P1;SDS_P2;PMS_P1;PMS_P2;Temp;Humidity;BMP_temperature;BMP_pressure;BME280_temperature;BME280_humidity;BME280_pressure;Samples;Min_cycle;Max_cycle;Signal;HPM_P1;HPM_P2
2023/09/30 00:01:01;;;;;;;27.52;14.57;;;13.50;99.90;;;;;;5014846;28;20036;-84
2023/09/30 00:03:28;;;;;;;25.88;14.02;;;13.50;99.90;;;;;;5014743;28;20038;-84
2023/09/30 00:05:54;;;;;;;26.70;13.75;;;13.50;99.90;;;;;;5015235;28;20544;-83
2023/09/30 00:08:20;;;;;;;27.63;13.68;;;13.50;99.90;;;;;;4998525;28;20159;-83
2023/09/30 00:11:17;;;;;;;29.85;14.35;;;13.40;99.90;;;;;;5031228;28;20131;-83
2023/09/30 00:13:42;;;;;;;29.65;14.85;;;13.30;99.90;;;;;;5014476;28;20049;-83
2023/09/30 00:16:09;;;;;;;26.67;14.65;;;13.20;99.90;;;;;;5014999;28;20026;-82
2023/09/30 00:18:34;;;;;;;29.25;14.38;;;13.20;99.90;;;;;;5014798;28;20080;-82
2023/09/30 00:21:00;;;;;;;29.95;13.15;;;13.10;99.90;;;;;;5031038;28;20034;-82
2023/09/30 00:23:26;;;;;;;34.83;14.50;;;13.10;99.90;;;;;;4998452;28;20038;-83
2023/09/30 00:25:51;;;;;;;33.30;14.95;;;13.10;99.90;;;;;;5014923;28;20033;-83
2023/09/30 00:28:18;;;;;;;34.72;13.65;;;13.00;99.90;;;;;;4997253;28;20481;-83
2023/09/30 00:30:47;;;;;;;28.88;13.95;;;13.00;99.90;;;;;;5014336;28;20033;-83
2023/09/30 00:33:13;;;;;;;26.38;12.82;;;13.00;99.90;;;;;;5014493;28;20034;-83
2023/09/30 00:35:39;;;;;;;27.35;13.13;;;13.00;99.90;;;;;;5014510;28;20030;-83
2023/09/30 00:38:04;;;;;;;22.15;13.13;;;13.00;99.90;;;;;;5031083;28;20030;-83
2023/09/30 00:40:30;;;;;;;27.45;12.77;;;13.00;99.90;;;;;;5013937;28;20033;-83
2023/09/30 00:42:58;;;;;;;24.70;11.63;;;13.00;99.90;;;;;;5013770;28;20477;-83
2023/09/30 00:45:24;;;;;;;26.40;10.98;;;13.00;99.90;;;;;;5013861;28;20157;-83
2023/09/30 00:47:51;;;;;;;20.48;9.77;;;13.00;99.90;;;;;;5013630;28;20445;-83
2023/09/30 00:50:18;;;;;;;31.30;10.90;;;13.00;99.90;;;;;;5013588;28;20037;-84
2023/09/30 00:52:46;;;;;;;24.13;10.13;;;13.00;99.90;;;;;;5010899;28;20381;-84
2023/09/30 00:55:12;;;;;;;21.95;9.48;;;13.00;99.90;;;;;;5013036;28;20068;-84
2023/09/30 00:57:39;;;;;;;19.70;8.90;;;13.00;99.90;;;;;;5029830;28;20057;-83
2023/09/30 01:00:06;;;;;;;19.80;9.30;;;13.00;99.90;;;;;;5014574;28;20525;-83
2023/09/30 01:02:32;;;;;;;17.58;8.68;;;13.10;99.90;;;;;;5013079;28;20125;-84
2023/09/30 01:04:58;;;;;;;20.88;8.40;;;13.10;99.90;;;;;;5012871;28;20442;-83
2023/09/30 01:07:23;;;;;;;24.42;9.95;;;13.10;99.90;;;;;;5013280;28;20036;-83
2023/09/30 01:09:50;;;;;;;27.27;9.30;;;13.10;99.90;;;;;;5029885;28;20109;-83
2023/09/30 01:12:16;;;;;;;23.40;8.95;;;13.10;99.90;;;;;;5013134;28;20041;-84
2023/09/30 01:14:42;;;;;;;15.57;8.95;;;13.10;99.90;;;;;;5014478;28;20799;-83
2023/09/30 01:17:08;;;;;;;20.58;8.85;;;13.10;99.90;;;;;;5029854;28;20424;-83
2023/09/30 01:19:34;;;;;;;22.52;8.60;;;13.10;99.90;;;;;;5029774;28;20033;-84
2023/09/30 01:22:00;;;;;;;26.67;9.88;;;13.10;99.90;;;;;;5029477;28;20524;-83
2023/09/30 01:24:28;;;;;;;21.02;9.10;;;13.10;99.90;;;;;;5011972;28;20058;-83
2023/09/30 01:26:54;;;;;;;20.45;8.57;;;13.10;99.90;;;;;;5013250;28;20030;-83
2023/09/30 01:29:20;;;;;;;27.00;9.50;;;13.10;99.90;;;;;;5029258;28;20045;-84
2023/09/30 01:31:49;;;;;;;17.40;8.45;;;13.10;99.90;;;;;;5013080;28;20022;-84
2023/09/30 01:34:16;;;;;;;21.67;9.43;;;13.20;99.90;;;;;;5013003;28;20116;-83
2023/09/30 01:36:44;;;;;;;24.15;8.75;;;13.20;99.90;;;;;;5029709;28;20519;-83
2023/09/30 01:39:11;;;;;;;20.73;8.98;;;13.10;99.90;;;;;;5013178;28;20119;-83
2023/09/30 01:41:38;;;;;;;17.52;8.27;;;13.10;99.90;;;;;;5012434;28;20052;-84
2023/09/30 01:44:06;;;;;;;22.85;9.32;;;13.10;99.90;;;;;;5012634;28;20033;-84
2023/09/30 01:46:32;;;;;;;18.17;9.10;;;13.10;99.90;;;;;;5012098;28;20104;-83
2023/09/30 01:48:59;;;;;;;25.15;9.00;;;13.10;99.90;;;;;;5012493;28;20033;-83
2023/09/30 01:51:25;;;;;;;19.90;8.88;;;13.10;99.90;;;;;;5008603;28;20033;-83
2023/09/30 01:53:51;;;;;;;23.17;8.63;;;13.10;99.90;;;;;;5012485;28;20389;-85
2023/09/30 01:56:16;;;;;;;17.48;8.50;;;13.10;99.90;;;;;;4996189;28;20057;-83
2023/09/30 01:58:43;;;;;;;19.38;8.60;;;13.20;99.90;;;;;;5028983;28;20029;-83
2023/09/30 02:01:09;;;;;;;22.13;8.55;;;13.10;99.90;;;;;;5011966;28;20030;-84
2023/09/30 02:03:34;;;;;;;19.30;9.00;;;13.10;99.90;;;;;;5012158;28;20034;-83
2023/09/30 02:06:00;;;;;;;22.90;8.68;;;13.10;99.90;;;;;;5012398;28;20048;-84
2023/09/30 02:08:26;;;;;;;22.98;9.27;;;13.10;99.90;;;;;;5012458;28;20030;-84
2023/09/30 02:10:52;;;;;;;20.88;9.45;;;13.10;99.90;;;;;;5028639;28;20157;-84
2023/09/30 02:13:18;;;;;;;29.38;10.20;;;13.10;99.90;;;;;;5011802;28;20033;-83
2023/09/30 02:15:44;;;;;;;18.80;8.88;;;13.20;99.90;;;;;;5012238;28;20033;-84
2023/09/30 02:18:10;;;;;;;31.08;9.38;;;13.10;99.90;;;;;;5011959;28;20393;-83
2023/09/30 02:20:39;;;;;;;20.58;8.75;;;13.20;99.90;;;;;;5011812;28;20026;-83
2023/09/30 02:23:15;;;;;;;24.60;9.13;;;13.10;99.90;;;;;;5028487;28;20105;-83
2023/09/30 02:25:43;;;;;;;26.30;10.43;;;13.10;99.90;;;;;;5012320;28;20033;-83
2023/09/30 02:28:39;;;;;;;19.65;9.52;;;13.10;99.90;;;;;;5012232;28;20048;-84
2023/09/30 02:31:07;;;;;;;26.85;9.75;;;13.10;99.90;;;;;;5012156;28;20033;-83
2023/09/30 02:33:35;;;;;;;20.27;9.23;;;13.10;99.90;;;;;;5028301;28;20042;-84
2023/09/30 02:36:05;;;;;;;22.90;9.32;;;13.10;99.90;;;;;;5027249;28;20109;-84
2023/09/30 02:38:31;;;;;;;16.30;9.40;;;13.10;99.90;;;;;;5028296;28;20096;-84
2023/09/30 02:40:57;;;;;;;23.42;10.15;;;13.10;99.90;;;;;;5011884;28;20030;-84
2023/09/30 02:43:22;;;;;;;20.55;10.55;;;13.10;99.90;;;;;;5011878;28;20069;-84
2023/09/30 02:45:48;;;;;;;20.65;10.63;;;13.10;99.90;;;;;;5011618;28;20030;-83
2023/09/30 02:48:14;;;;;;;16.92;10.35;;;13.10;99.90;;;;;;4995222;28;20030;-83
2023/09/30 02:50:44;;;;;;;23.33;10.45;;;13.10;99.90;;;;;;5011128;28;20026;-84
2023/09/30 02:53:11;;;;;;;22.85;9.90;;;13.10;99.90;;;;;;5008028;28;20037;-83
2023/09/30 02:55:36;;;;;;;20.10;10.60;;;13.10;99.90;;;;;;5011683;28;20044;-83
2023/09/30 02:58:02;;;;;;;17.75;9.57;;;13.10;99.90;;;;;;5011680;28;20038;-84
2023/09/30 03:00:32;;;;;;;28.67;11.57;;;13.10;99.90;;;;;;5012032;28;20022;-83
2023/09/30 03:03:01;;;;;;;18.50;9.88;;;13.10;99.90;;;;;;5011830;28;20030;-84
2023/09/30 03:05:30;;;;;;;20.13;9.55;;;13.00;99.90;;;;;;5012039;28;20497;-84
2023/09/30 03:07:56;;;;;;;17.75;10.10;;;13.00;99.90;;;;;;5028021;28;20048;-84
2023/09/30 03:10:23;;;;;;;24.25;10.35;;;13.10;99.90;;;;;;5011945;28;20416;-84
2023/09/30 03:12:50;;;;;;;28.80;11.10;;;13.10;99.90;;;;;;5011943;28;20497;-84
2023/09/30 03:15:16;;;;;;;23.77;11.20;;;13.00;99.90;;;;;;5011688;28;20088;-84
2023/09/30 03:17:43;;;;;;;24.20;10.82;;;13.00;99.90;;;;;;5011699;28;20430;-84
2023/09/30 03:20:11;;;;;;;17.80;11.57;;;13.00;99.90;;;;;;5011422;28;20026;-84
2023/09/30 03:22:46;;;;;;;19.15;11.50;;;13.00;99.90;;;;;;5011671;28;20092;-83
2023/09/30 03:25:15;;;;;;;25.45;12.00;;;13.00;99.90;;;;;;5011133;28;20133;-84
2023/09/30 03:27:41;;;;;;;28.52;11.77;;;12.90;99.90;;;;;;5010982;28;20377;-84
2023/09/30 03:30:08;;;;;;;25.77;11.07;;;12.90;99.90;;;;;;5011580;28;20080;-84
2023/09/30 03:32:37;;;;;;;22.42;10.93;;;12.90;99.90;;;;;;5011178;28;20032;-83
2023/09/30 03:35:07;;;;;;;23.13;9.98;;;12.90;99.90;;;;;;5011195;28;20124;-84
2023/09/30 03:37:33;;;;;;;24.80;10.93;;;12.90;99.90;;;;;;5028396;28;20030;-83
2023/09/30 03:39:58;;;;;;;19.45;10.52;;;12.90;99.90;;;;;;4995510;28;20453;-84
2023/09/30 03:42:24;;;;;;;23.13;10.95;;;12.90;99.90;;;;;;5011438;28;20061;-83
2023/09/30 03:44:51;;;;;;;27.27;11.65;;;12.90;99.90;;;;;;5010993;28;20037;-83
2023/09/30 03:47:19;;;;;;;23.67;10.02;;;12.90;99.90;;;;;;5013961;28;20439;-84
2023/09/30 03:50:16;;;;;;;22.95;10.27;;;12.90;99.90;;;;;;5015049;28;20038;-83
2023/09/30 03:52:47;;;;;;;20.08;11.07;;;12.80;99.90;;;;;;5015110;28;20028;-84
2023/09/30 03:55:15;;;;;;;22.02;11.43;;;12.80;99.90;;;;;;5012172;28;20524;-83
2023/09/30 03:57:41;;;;;;;24.65;10.43;;;12.80;99.90;;;;;;5014792;28;20064;-83
2023/09/30 04:00:11;;;;;;;20.70;10.00;;;12.80;99.90;;;;;;5014938;28;20037;-84
2023/09/30 04:02:42;;;;;;;20.52;11.65;;;12.80;99.90;;;;;;5016256;28;20033;-83
2023/09/30 04:05:11;;;;;;;21.42;11.90;;;12.90;99.90;;;;;;5015218;28;20029;-83
2023/09/30 04:08:05;;;;;;;29.40;11.80;;;12.90;99.90;;;;;;5014626;28;20512;-84
2023/09/30 04:10:30;;;;;;;27.70;11.20;;;12.80;99.90;;;;;;5025553;28;20093;-84
2023/09/30 04:12:56;;;;;;;21.48;10.45;;;12.80;99.90;;;;;;5015441;28;20453;-84
2023/09/30 04:15:22;;;;;;;21.15;10.18;;;12.80;99.90;;;;;;5015114;28;20681;-84
2023/09/30 04:17:52;;;;;;;23.25;11.48;;;12.80;99.90;;;;;;5014376;28;20017;-84
2023/09/30 04:20:22;;;;;;;24.85;12.00;;;12.80;99.90;;;;;;5014392;28;20779;-84
2023/09/30 04:22:49;;;;;;;24.73;10.93;;;12.70;99.90;;;;;;5015073;28;20124;-84
2023/09/30 04:25:16;;;;;;;27.88;11.82;;;12.80;99.90;;;;;;5014046;28;20112;-83
2023/09/30 04:27:47;;;;;;;25.60;10.80;;;12.80;99.90;;;;;;5013569;28;20501;-84
2023/09/30 04:30:15;;;;;;;26.02;11.02;;;12.80;99.90;;;;;;5013600;28;20025;-84
2023/09/30 04:32:41;;;;;;;26.98;12.55;;;12.70;99.90;;;;;;5013586;28;20033;-83
2023/09/30 04:35:09;;;;;;;30.55;12.80;;;12.70;99.90;;;;;;5013400;28;20484;-84
2023/09/30 04:37:36;;;;;;;27.90;12.65;;;12.60;99.90;;;;;;5013989;28;20041;-83
2023/09/30 04:40:15;;;;;;;26.17;12.98;;;12.60;99.90;;;;;;5013939;28;20577;-83
2023/09/30 04:42:43;;;;;;;26.75;11.43;;;12.60;99.90;;;;;;5013971;28;20045;-84
2023/09/30 04:45:10;;;;;;;23.20;11.52;;;12.50;99.90;;;;;;5013784;28;20041;-84
2023/09/30 04:47:37;;;;;;;26.95;12.35;;;12.40;99.90;;;;;;5013395;28;20505;-84
2023/09/30 04:50:07;;;;;;;22.90;11.85;;;12.40;99.90;;;;;;5013481;28;20068;-84
2023/09/30 04:52:33;;;;;;;27.63;13.60;;;12.30;99.90;;;;;;5013463;28;20473;-84
2023/09/30 04:54:59;;;;;;;26.48;13.32;;;12.30;99.90;;;;;;5010736;28;20508;-84
2023/09/30 04:57:26;;;;;;;27.23;12.48;;;12.10;99.90;;;;;;5013080;28;20024;-84
2023/09/30 04:59:52;;;;;;;27.38;13.15;;;12.00;99.90;;;;;;5013465;28;20029;-84
2023/09/30 05:02:17;;;;;;;24.17;12.23;;;12.00;99.90;;;;;;5013915;28;20034;-84
2023/09/30 05:04:43;;;;;;;31.10;13.65;;;11.80;99.90;;;;;;5013829;28;20041;-84
2023/09/30 05:07:09;;;;;;;27.90;13.10;;;11.70;99.90;;;;;;5013763;28;20139;-83
2023/09/30 05:09:34;;;;;;;25.58;13.57;;;11.50;99.90;;;;;;5030040;28;20053;-84
2023/09/30 05:12:00;;;;;;;34.20;13.20;;;11.50;99.90;;;;;;4997043;28;20105;-84
2023/09/30 05:14:28;;;;;;;31.65;14.35;;;11.40;99.90;;;;;;5014166;28;20034;-83
2023/09/30 05:16:56;;;;;;;38.10;14.80;;;11.30;99.90;;;;;;5013095;28;20030;-84
2023/09/30 05:19:22;;;;;;;25.65;13.85;;;11.20;99.90;;;;;;5013343;28;20066;-83
2023/09/30 05:21:48;;;;;;;25.38;13.85;;;11.20;99.90;;;;;;5013097;28;20038;-84
2023/09/30 05:24:15;;;;;;;28.48;13.25;;;11.20;99.90;;;;;;5013418;28;20041;-84
2023/09/30 05:26:41;;;;;;;33.08;14.63;;;11.10;99.90;;;;;;5013430;28;20088;-84
2023/09/30 05:29:07;;;;;;;36.78;15.68;;;11.20;99.90;;;;;;5012969;28;20109;-84
2023/09/30 05:31:33;;;;;;;36.70;15.95;;;11.20;99.90;;;;;;5014432;28;20037;-84
2023/09/30 05:33:58;;;;;;;31.48;15.27;;;11.40;99.90;;;;;;5012867;28;20477;-84
2023/09/30 05:36:24;;;;;;;32.97;16.15;;;11.40;99.90;;;;;;5012604;28;20033;-84
2023/09/30 05:38:50;;;;;;;32.53;15.48;;;11.50;99.90;;;;;;5029441;28;20100;-84
2023/09/30 05:41:16;;;;;;;39.88;16.83;;;11.60;99.90;;;;;;5029620;28;20041;-84
2023/09/30 05:43:43;;;;;;;38.17;18.73;;;11.80;99.90;;;;;;4995639;28;20053;-84
2023/09/30 05:46:09;;;;;;;38.85;18.77;;;12.00;99.90;;;;;;5012508;28;20101;-84
2023/09/30 05:48:35;;;;;;;41.03;18.52;;;12.00;99.90;;;;;;5011763;28;20129;-83
2023/09/30 05:51:01;;;;;;;43.30;19.63;;;12.10;99.90;;;;;;5011538;28;20045;-84
2023/09/30 05:53:28;;;;;;;41.20;20.98;;;12.20;99.90;;;;;;5012607;28;20061;-83
2023/09/30 05:55:54;;;;;;;226.52;93.30;;;12.30;99.90;;;;;;5012600;28;20029;-84
2023/09/30 05:58:20;;;;;;;257.08;105.65;;;12.40;99.90;;;;;;5029267;28;20037;-84
2023/09/30 06:00:46;;;;;;;46.65;20.33;;;12.40;99.90;;;;;;5013752;28;20141;-84
2023/09/30 06:03:11;;;;;;;27.17;16.17;;;12.40;99.90;;;;;;5012193;28;20061;-84
2023/09/30 06:05:41;;;;;;;32.33;15.75;;;12.40;99.90;;;;;;5012139;28;20042;-84
2023/09/30 06:08:18;;;;;;;39.35;17.08;;;12.50;99.90;;;;;;5013747;28;20040;-84
2023/09/30 06:10:44;;;;;;;97.75;19.45;;;12.50;99.90;;;;;;5011760;28;20026;-84
2023/09/30 06:13:11;;;;;;;37.75;16.67;;;12.60;99.90;;;;;;5012425;28;20117;-84
2023/09/30 06:15:41;;;;;;;40.17;18.77;;;12.60;99.90;;;;;;5012028;28;20045;-84
2023/09/30 06:18:09;;;;;;;37.45;18.30;;;12.60;99.90;;;;;;5012676;28;20087;-84
2023/09/30 06:20:35;;;;;;;35.50;17.60;;;12.60;99.90;;;;;;5012223;28;20045;-84
2023/09/30 06:23:01;;;;;;;31.40;17.52;;;12.60;99.90;;;;;;5011736;28;20477;-83
2023/09/30 06:25:27;;;;;;;33.60;18.35;;;12.60;99.90;;;;;;5011515;28;20030;-83
2023/09/30 06:27:57;;;;;;;35.15;16.30;;;12.70;99.90;;;;;;5012099;28;20037;-84
2023/09/30 06:30:29;;;;;;;35.03;17.25;;;12.80;99.90;;;;;;5012243;28;20412;-85
2023/09/30 06:32:56;;;;;;;34.38;17.13;;;12.80;99.90;;;;;;5028370;28;20091;-84
2023/09/30 06:35:23;;;;;;;36.83;17.25;;;12.80;99.90;;;;;;5011560;28;20022;-84
2023/09/30 06:37:48;;;;;;;31.15;17.85;;;12.80;99.90;;;;;;5011904;28;20164;-84
2023/09/30 06:40:14;;;;;;;26.70;15.85;;;12.90;99.90;;;;;;5011594;28;20025;-84
2023/09/30 06:42:40;;;;;;;31.15;15.73;;;12.90;99.90;;;;;;4994738;28;20038;-84
2023/09/30 06:45:07;;;;;;;31.73;14.30;;;12.70;99.90;;;;;;5011467;28;20041;-84
2023/09/30 06:47:37;;;;;;;38.05;15.68;;;12.70;99.90;;;;;;5011055;28;20046;-84
2023/09/30 06:50:08;;;;;;;36.05;16.23;;;12.80;99.90;;;;;;5011848;28;20493;-84
2023/09/30 06:52:35;;;;;;;31.73;15.23;;;13.00;99.90;;;;;;5028332;28;20040;-84
2023/09/30 06:55:04;;;;;;;21.10;11.77;;;13.00;99.90;;;;;;5028131;28;20114;-84
2023/09/30 06:57:32;;;;;;;25.75;12.30;;;13.00;99.90;;;;;;5028442;28;20493;-83
2023/09/30 06:59:57;;;;;;;31.92;12.90;;;13.00;99.90;;;;;;5012511;28;20540;-84
2023/09/30 07:02:23;;;;;;;31.67;13.57;;;13.00;99.90;;;;;;5011455;28;20034;-84
2023/09/30 07:04:49;;;;;;;29.65;12.98;;;13.10;99.90;;;;;;5027863;28;20026;-84
2023/09/30 07:07:15;;;;;;;30.08;12.88;;;13.20;99.90;;;;;;4995559;28;20508;-84
2023/09/30 07:09:43;;;;;;;30.50;13.70;;;13.20;99.90;;;;;;5011800;28;20038;-84
2023/09/30 07:12:09;;;;;;;24.48;12.80;;;13.20;99.90;;;;;;5012228;28;20485;-84
2023/09/30 07:14:35;;;;;;;31.67;14.23;;;13.30;99.90;;;;;;5011535;28;20030;-84
2023/09/30 07:17:00;;;;;;;27.02;12.90;;;13.40;99.90;;;;;;5011057;28;20030;-83
2023/09/30 07:19:26;;;;;;;27.20;13.38;;;13.40;99.90;;;;;;5011500;28;20125;-84
2023/09/30 07:21:52;;;;;;;19.90;12.25;;;13.40;99.90;;;;;;5013558;28;20050;-84
2023/09/30 07:24:17;;;;;;;27.27;12.73;;;13.50;99.90;;;;;;5015370;28;20041;-84
2023/09/30 07:26:43;;;;;;;29.20;12.77;;;13.50;99.90;;;;;;5014725;28;20044;-84
2023/09/30 07:29:10;;;;;;;30.50;12.65;;;13.50;99.90;;;;;;5031892;28;20133;-84
2023/09/30 07:31:36;;;;;;;25.90;12.10;;;13.60;99.90;;;;;;5015303;28;20061;-84
2023/09/30 07:34:02;;;;;;;26.70;12.35;;;13.60;99.90;;;;;;5032099;28;20038;-84
2023/09/30 07:36:28;;;;;;;22.83;11.25;;;13.70;99.90;;;;;;5015152;28;20088;-84
2023/09/30 07:38:54;;;;;;;28.42;14.85;;;13.80;99.90;;;;;;5015394;28;20532;-84
2023/09/30 07:41:20;;;;;;;21.60;10.73;;;13.90;99.90;;;;;;5014504;28;20034;-84
2023/09/30 07:43:45;;;;;;;22.75;11.88;;;14.00;99.90;;;;;;5013797;28;20030;-84
2023/09/30 07:46:11;;;;;;;20.65;11.23;;;14.20;99.90;;;;;;5019920;28;20041;-83
2023/09/30 07:48:39;;;;;;;25.52;11.23;;;14.30;99.90;;;;;;5015664;28;20084;-84
2023/09/30 07:51:09;;;;;;;17.52;10.35;;;14.30;99.90;;;;;;5014630;28;20385;-84
2023/09/30 07:53:35;;;;;;;21.40;9.80;;;14.40;99.90;;;;;;5031366;28;20117;-84
2023/09/30 07:56:00;;;;;;;22.23;10.80;;;14.50;99.90;;;;;;5013755;28;20873;-84
2023/09/30 07:58:27;;;;;;;21.10;11.10;;;14.50;99.90;;;;;;5014945;28;20138;-84
2023/09/30 08:00:53;;;;;;;19.98;9.88;;;14.50;99.90;;;;;;5014055;28;20080;-84
2023/09/30 08:03:19;;;;;;;22.73;9.88;;;14.60;99.90;;;;;;5015666;28;20541;-84
2023/09/30 08:05:46;;;;;;;16.88;10.32;;;14.60;99.90;;;;;;5014539;28;20041;-85
2023/09/30 08:08:12;;;;;;;19.73;9.80;;;14.70;99.90;;;;;;5030842;28;20120;-84
2023/09/30 08:10:37;;;;;;;16.58;9.75;;;14.80;99.90;;;;;;5014482;28;20211;-85
2023/09/30 08:13:04;;;;;;;21.17;9.90;;;14.90;99.90;;;;;;4997731;28;20462;-86
2023/09/30 08:15:30;;;;;;;22.05;9.32;;;14.90;99.90;;;;;;5014237;28;20044;-84
2023/09/30 08:17:56;;;;;;;16.92;8.43;;;15.00;99.90;;;;;;5014919;28;20029;-85
2023/09/30 08:20:22;;;;;;;15.60;8.65;;;15.00;99.90;;;;;;5015199;28;20113;-84
2023/09/30 08:22:47;;;;;;;20.05;8.88;;;15.10;99.90;;;;;;4998480;28;20038;-85
2023/09/30 08:25:13;;;;;;;23.73;10.85;;;15.30;99.90;;;;;;5014704;28;20053;-85
2023/09/30 08:27:57;;;;;;;15.98;8.70;;;15.50;99.90;;;;;;5014053;28;20034;-84
2023/09/30 08:30:23;;;;;;;18.08;8.07;;;15.70;99.90;;;;;;5030634;28;20030;-85
2023/09/30 08:32:48;;;;;;;29.98;10.80;;;15.70;99.90;;;;;;5014174;28;20026;-84
2023/09/30 08:35:39;;;;;;;19.90;8.50;;;15.70;99.90;;;;;;5015623;28;20033;-85
2023/09/30 08:38:05;;;;;;;29.33;9.73;;;15.50;99.90;;;;;;5013949;28;20436;-84
2023/09/30 08:40:31;;;;;;;19.13;8.43;;;15.50;99.90;;;;;;5030201;28;20038;-85
2023/09/30 08:42:57;;;;;;;19.45;7.63;;;15.30;99.90;;;;;;5014317;28;20025;-84
2023/09/30 08:45:24;;;;;;;18.45;7.95;;;15.30;99.90;;;;;;5030242;28;20041;-84
2023/09/30 08:47:50;;;;;;;20.42;8.32;;;15.10;99.90;;;;;;5030317;28;20080;-84
2023/09/30 08:50:17;;;;;;;14.55;7.30;;;15.00;99.90;;;;;;5030586;28;20393;-84
2023/09/30 08:52:44;;;;;;;17.98;7.13;;;14.90;99.90;;;;;;5030178;28;20029;-84
2023/09/30 08:55:11;;;;;;;19.63;7.88;;;14.80;99.90;;;;;;5013704;28;20072;-85
2023/09/30 08:57:41;;;;;;;16.58;7.53;;;14.70;99.90;;;;;;5030334;28;20030;-84
2023/09/30 09:00:11;;;;;;;18.83;6.85;;;14.80;99.90;;;;;;5013754;28;20037;-84
2023/09/30 09:02:38;;;;;;;17.98;7.00;;;15.00;99.90;;;;;;5013951;28;20030;-85
2023/09/30 09:05:04;;;;;;;18.63;8.85;;;15.10;99.90;;;;;;5030217;28;20063;-85
2023/09/30 09:07:33;;;;;;;21.05;7.72;;;15.10;99.90;;;;;;5013502;28;20079;-84
2023/09/30 09:10:07;;;;;;;22.17;7.60;;;15.30;99.90;;;;;;5029405;28;20026;-84
2023/09/30 09:12:35;;;;;;;13.02;7.30;;;15.30;99.90;;;;;;5012437;28;20034;-85
2023/09/30 09:15:01;;;;;;;16.88;7.80;;;15.20;99.90;;;;;;4996018;28;20088;-84
2023/09/30 09:17:44;;;;;;;23.00;6.70;;;15.40;99.90;;;;;;5012704;28;20030;-84
2023/09/30 09:20:11;;;;;;;21.52;6.70;;;15.50;99.90;;;;;;5012462;28;20109;-84
2023/09/30 09:22:43;;;;;;;15.48;6.38;;;15.80;99.90;;;;;;5028603;28;20037;-85
2023/09/30 09:25:10;;;;;;;17.25;6.70;;;16.30;99.90;;;;;;5012677;28;20080;-85
2023/09/30 09:27:37;;;;;;;13.73;6.63;;;16.70;99.90;;;;;;5012694;28;20038;-85
2023/09/30 09:30:15;;;;;;;16.42;6.72;;;17.10;99.90;;;;;;5012392;28;20038;-85
2023/09/30 09:33:07;;;;;;;13.52;5.65;;;17.80;99.90;;;;;;5029215;28;20057;-85
2023/09/30 09:35:35;;;;;;;14.35;5.75;;;18.80;99.90;;;;;;4993246;28;20038;-85
2023/09/30 09:38:01;;;;;;;12.32;5.47;;;19.80;99.90;;;;;;5012429;28;20038;-85
2023/09/30 09:40:32;;;;;;;13.30;5.32;;;20.10;99.90;;;;;;5013828;28;20052;-85
2023/09/30 09:42:59;;;;;;;12.32;5.63;;;20.30;99.90;;;;;;5012299;28;20065;-85
2023/09/30 09:45:26;;;;;;;12.82;5.85;;;20.40;99.90;;;;;;5011560;28;20113;-85
2023/09/30 09:47:56;;;;;;;13.15;5.85;;;20.70;99.90;;;;;;5028593;28;20029;-85
2023/09/30 09:50:23;;;;;;;12.38;5.53;;;20.60;99.90;;;;;;5012278;28;20033;-85
2023/09/30 09:52:51;;;;;;;16.83;5.75;;;20.70;99.90;;;;;;5012634;28;20101;-85
2023/09/30 09:55:21;;;;;;;12.82;5.72;;;20.50;99.90;;;;;;5029052;28;20112;-85
2023/09/30 09:57:48;;;;;;;13.35;5.72;;;20.40;99.90;;;;;;5012438;28;20032;-85
2023/09/30 10:00:23;;;;;;;17.27;6.65;;;19.80;99.90;;;;;;5012474;28;20482;-85
2023/09/30 10:02:50;;;;;;;15.65;5.70;;;19.20;99.90;;;;;;5028709;28;20034;-85
2023/09/30 10:05:17;;;;;;;15.13;5.50;;;19.10;99.90;;;;;;5012055;28;20084;-85
2023/09/30 10:08:17;;;;;;;15.63;6.22;;;18.90;99.90;;;;;;4994981;28;20041;-85
2023/09/30 10:10:44;;;;;;;15.13;7.13;;;18.10;99.90;;;;;;5012290;28;20029;-85
2023/09/30 10:13:29;;;;;;;14.98;6.35;;;18.20;99.90;;;;;;5011095;28;20038;-85
2023/09/30 10:15:55;;;;;;;12.55;5.50;;;18.40;99.90;;;;;;5011903;28;20041;-85
2023/09/30 10:18:21;;;;;;;13.10;5.05;;;18.10;99.90;;;;;;5011519;28;20030;-85
2023/09/30 10:20:48;;;;;;;13.88;5.60;;;18.20;99.90;;;;;;5010647;28;20034;-85
2023/09/30 10:23:27;;;;;;;11.27;5.72;;;18.60;99.90;;;;;;5012205;28;20058;-85
2023/09/30 10:26:10;;;;;;;13.50;5.90;;;18.60;99.90;;;;;;5028273;28;20383;-85
2023/09/30 10:28:39;;;;;;;13.35;5.63;;;19.30;99.90;;;;;;5011262;28;20026;-85
2023/09/30 10:31:13;;;;;;;15.57;6.03;;;19.70;99.90;;;;;;5010975;28;20748;-85
2023/09/30 10:34:01;;;;;;;12.00;5.60;;;20.10;99.90;;;;;;5027400;28;20084;-85
2023/09/30 10:36:34;;;;;;;11.55;6.25;;;20.60;99.90;;;;;;5012135;28;20037;-85
2023/09/30 10:39:00;;;;;;;13.75;5.70;;;20.70;99.90;;;;;;5028319;28;20038;-85
2023/09/30 10:41:43;;;;;;;14.25;5.40;;;20.10;99.90;;;;;;5011034;28;20045;-85
2023/09/30 10:44:25;;;;;;;11.07;5.45;;;20.40;99.90;;;;;;5028001;28;20782;-85
2023/09/30 10:47:20;;;;;;;13.20;5.72;;;20.20;99.90;;;;;;5011593;28;20084;-85
2023/09/30 10:49:46;;;;;;;13.27;6.75;;;20.40;99.90;;;;;;5011800;28;20038;-85
2023/09/30 10:52:25;;;;;;;12.45;5.90;;;20.40;99.90;;;;;;5027956;28;20130;-85
2023/09/30 10:54:51;;;;;;;14.27;6.25;;;20.50;99.90;;;;;;5011363;28;20025;-85
2023/09/30 10:57:31;;;;;;;13.40;6.63;;;19.90;99.90;;;;;;5014015;28;20026;-84
2023/09/30 11:00:14;;;;;;;13.82;5.78;;;19.50;99.90;;;;;;5038012;28;20026;-85
2023/09/30 11:02:51;;;;;;;14.25;6.45;;;19.50;99.90;;;;;;5017991;28;20547;-85
2023/09/30 11:05:18;;;;;;;14.82;6.03;;;19.80;99.90;;;;;;5015133;28;20128;-85
2023/09/30 11:07:47;;;;;;;14.73;6.35;;;19.90;99.90;;;;;;5031834;28;20633;-85
2023/09/30 11:10:16;;;;;;;12.73;5.70;;;19.30;99.90;;;;;;5015082;28;20042;-85
2023/09/30 11:12:57;;;;;;;17.23;7.15;;;19.30;99.90;;;;;;5014039;28;20033;-84
2023/09/30 11:15:23;;;;;;;13.45;6.43;;;20.10;99.90;;;;;;5031291;28;20569;-84
2023/09/30 11:17:49;;;;;;;15.85;6.53;;;20.70;99.90;;;;;;5014707;28;20129;-85
2023/09/30 11:20:18;;;;;;;14.68;6.40;;;20.80;99.90;;;;;;5016272;28;20030;-83
2023/09/30 11:22:47;;;;;;;15.52;6.82;;;20.40;99.90;;;;;;5014854;28;20042;-84
2023/09/30 11:25:17;;;;;;;14.02;6.53;;;20.60;99.90;;;;;;5031520;28;20038;-84
2023/09/30 11:27:43;;;;;;;14.87;7.20;;;20.70;99.90;;;;;;5014774;28;20040;-85
2023/09/30 11:30:10;;;;;;;15.00;8.07;;;20.70;99.90;;;;;;5013676;28;20474;-84
2023/09/30 11:32:36;;;;;;;17.40;6.78;;;20.30;99.90;;;;;;5030667;28;20474;-84
2023/09/30 11:35:02;;;;;;;14.93;7.07;;;20.60;99.90;;;;;;5030912;28;20109;-85
2023/09/30 11:37:34;;;;;;;20.27;7.75;;;20.70;99.90;;;;;;5014454;28;20034;-85
2023/09/30 11:40:11;;;;;;;11.98;5.72;;;20.00;99.90;;;;;;4998202;28;20044;-85
2023/09/30 11:42:38;;;;;;;15.40;6.90;;;19.90;99.90;;;;;;5014379;28;20034;-85
2023/09/30 11:45:24;;;;;;;14.30;6.70;;;20.20;99.90;;;;;;5014120;28;20041;-85
2023/09/30 11:47:49;;;;;;;14.43;7.15;;;19.90;99.90;;;;;;5030976;28;20041;-85
2023/09/30 11:50:16;;;;;;;17.17;6.78;;;19.50;99.90;;;;;;5030566;28;20662;-85
2023/09/30 11:52:46;;;;;;;14.57;6.45;;;19.50;99.90;;;;;;5030075;28;20045;-85
2023/09/30 11:55:12;;;;;;;12.68;6.07;;;20.10;99.90;;;;;;5030811;28;20034;-85
2023/09/30 11:57:38;;;;;;;14.45;6.10;;;20.60;99.90;;;;;;5030793;28;20516;-86
2023/09/30 12:00:13;;;;;;;14.70;5.68;;;21.30;99.90;;;;;;5015448;28;20033;-86
2023/09/30 12:02:40;;;;;;;13.70;5.97;;;21.90;99.90;;;;;;5013932;28;20030;-85
2023/09/30 12:05:11;;;;;;;16.10;6.40;;;22.30;99.90;;;;;;5014147;28;20034;-85
2023/09/30 12:07:41;;;;;;;16.90;6.72;;;21.90;99.90;;;;;;5029656;28;20034;-83
2023/09/30 12:10:07;;;;;;;16.27;6.07;;;22.30;99.90;;;;;;4997704;28;20499;-84
2023/09/30 12:12:33;;;;;;;15.15;7.00;;;22.60;99.90;;;;;;5013683;28;20058;-83
2023/09/30 12:14:59;;;;;;;14.40;7.03;;;22.30;99.90;;;;;;5012290;28;20411;-83
2023/09/30 12:17:24;;;;;;;14.00;7.15;;;22.50;99.90;;;;;;5028937;28;20030;-83
2023/09/30 12:19:51;;;;;;;15.07;6.47;;;22.10;99.90;;;;;;5012041;28;20042;-84
2023/09/30 12:22:17;;;;;;;17.65;6.55;;;21.60;99.90;;;;;;5028509;28;20073;-84
2023/09/30 12:24:44;;;;;;;15.10;7.50;;;21.60;99.90;;;;;;5012627;28;20064;-85
2023/09/30 12:27:09;;;;;;;17.60;6.90;;;21.30;99.90;;;;;;5029147;28;20040;-85
2023/09/30 12:29:38;;;;;;;15.68;7.18;;;20.80;99.90;;;;;;5028886;28;20037;-84
2023/09/30 12:32:05;;;;;;;15.35;6.82;;;20.50;99.90;;;;;;5011665;28;20048;-84
2023/09/30 12:34:32;;;;;;;16.77;7.20;;;19.90;99.90;;;;;;5011942;28;20034;-84
2023/09/30 12:36:59;;;;;;;14.88;7.30;;;19.60;99.90;;;;;;5013121;28;20045;-85